sensor_id;sensor_type;location;lat;lon;timestamp;P1;durP1;ratioP1;P2;durP2;ratioP2
21804;SDS011;11064;47.102;15.452;2023-11-22T05:01:42;3.97;;;3.13;;
21804;SDS011;11064;47.102;15.452;2023-11-22T05:04:08;3.45;;;2.15;;
21804;SDS011;11064;47.102;15.452;2023-11-22T05:06:35;2.38;;;2.05;;
21804;SDS011;11064;47.102;15.452;2023-11-22T05:09:01;2.22;;;1.83;;
21804;SDS011;11064;47.102;15.452;2023-11-22T05:11:27;2.85;;;2.00;;
21804;SDS011;11064;47.102;15.452;2023-11-22T05:13:53;2.28;;;1.90;;
21804;SDS011;11064;47.102;15.452;2023-11-22T05:16:19;2.50;;;1.85;;
21804;SDS011;11064;47.102;15.452;2023-11-22T05:18:45;2.33;;;1.80;;
21804;SDS011;11064;47.102;15.452;2023-11-22T05:21:10;1.83;;;1.63;;
21804;SDS011;11064;47.102;15.452;2023-11-22T05:23:36;2.17;;;1.70;;
21804;SDS011;11064;47.102;15.452;2023-11-22T05:26:02;1.70;;;1.60;;
21804;SDS011;11064;47.102;15.452;2023-11-22T05:28:30;2.17;;;1.80;;
21804;SDS011;11064;47.102;15.452;2023-11-22T05:30:56;2.10;;;1.75;;
21804;SDS011;11064;47.102;15.452;2023-11-22T05:33:22;3.80;;;1.75;;
21804;SDS011;11064;47.102;15.452;2023-11-22T05:35:49;2.28;;;1.80;;
21804;SDS011;11064;47.102;15.452;2023-11-22T05:38:15;2.10;;;1.90;;
21804;SDS011;11064;47.102;15.452;2023-11-22T05:40:41;2.33;;;1.90;;
21804;SDS011;11064;47.102;15.452;2023-11-22T05:43:08;2.20;;;1.85;;
21804;SDS011;11064;47.102;15.452;2023-11-22T05:45:35;3.92;;;1.80;;
21804;SDS011;11064;47.102;15.452;2023-11-22T05:48:01;2.83;;;2.15;;
21804;SDS011;11064;47.102;15.452;2023-11-22T05:50:26;3.20;;;2.08;;
21804;SDS011;11064;47.102;15.452;2023-11-22T05:52:52;4.18;;;2.08;;
21804;SDS011;11064;47.102;15.452;2023-11-22T05:55:18;3.25;;;1.95;;
21804;SDS011;11064;47.102;15.452;2023-11-22T05:57:44;4.07;;;2.30;;
21804;SDS011;11064;47.102;15.452;2023-11-22T06:00:10;2.67;;;2.13;;
21804;SDS011;11064;47.102;15.452;2023-11-22T06:02:37;3.60;;;2.33;;
21804;SDS011;11064;47.102;15.452;2023-11-22T06:05:04;3.58;;;2.35;;
21804;SDS011;11064;47.102;15.452;2023-11-22T06:07:31;3.50;;;2.83;;
21804;SDS011;11064;47.102;15.452;2023-11-22T06:09:57;4.38;;;3.17;;
21804;SDS011;11064;47.102;15.452;2023-11-22T06:12:23;5.75;;;3.95;;
21804;SDS011;11064;47.102;15.452;2023-11-22T06:14:48;4.60;;;3.22;;
21804;SDS011;11064;47.102;15.452;2023-11-22T06:17:14;5.70;;;3.33;;
21804;SDS011;11064;47.102;15.452;2023-11-22T06:19:40;4.45;;;3.25;;
21804;SDS011;11064;47.102;15.452;2023-11-22T06:22:06;6.10;;;3.10;;
21804;SDS011;11064;47.102;15.452;2023-11-22T06:24:32;4.30;;;3.25;;
21804;SDS011;11064;47.102;15.452;2023-11-22T06:27:01;5.43;;;3.60;;
21804;SDS011;11064;47.102;15.452;2023-11-22T06:29:28;4.60;;;3.20;;
21804;SDS011;11064;47.102;15.452;2023-11-22T06:31:54;3.95;;;2.92;;
21804;SDS011;11064;47.102;15.452;2023-11-22T06:34:21;4.10;;;2.90;;
21804;SDS011;11064;47.102;15.452;2023-11-22T06:36:47;4.35;;;3.03;;
21804;SDS011;11064;47.102;15.452;2023-11-22T06:39:13;5.68;;;2.83;;
21804;SDS011;11064;47.102;15.452;2023-11-22T06:41:42;4.97;;;2.60;;
21804;SDS011;11064;47.102;15.452;2023-11-22T06:44:08;2.75;;;2.20;;
21804;SDS011;11064;47.102;15.452;2023-11-22T06:46:34;3.38;;;2.45;;
21804;SDS011;11064;47.102;15.452;2023-11-22T06:49:00;3.38;;;2.40;;
21804;SDS011;11064;47.102;15.452;2023-11-22T06:51:26;3.42;;;2.00;;
21804;SDS011;11064;47.102;15.452;2023-11-22T06:53:52;2.40;;;1.95;;
21804;SDS011;11064;47.102;15.452;2023-11-22T06:56:19;2.70;;;2.05;;
21804;SDS011;11064;47.102;15.452;2023-11-22T06:58:45;3.60;;;2.15;;
21804;SDS011;11064;47.102;15.452;2023-11-22T07:01:11;2.25;;;1.75;;
21804;SDS011;11064;47.102;15.452;2023-11-22T07:03:37;2.47;;;2.10;;
21804;SDS011;11064;47.102;15.452;2023-11-22T07:06:03;2.35;;;2.03;;
21804;SDS011;11064;47.102;15.452;2023-11-22T07:08:29;2.60;;;1.90;;
21804;SDS011;11064;47.102;15.452;2023-11-22T07:10:55;4.35;;;2.17;;
21804;SDS011;11064;47.102;15.452;2023-11-22T07:13:22;2.33;;;2.00;;
21804;SDS011;11064;47.102;15.452;2023-11-22T07:15:51;4.60;;;2.38;;
21804;SDS011;11064;47.102;15.452;2023-11-22T07:18:16;2.78;;;2.08;;
21804;SDS011;11064;47.102;15.452;2023-11-22T07:20:42;3.50;;;2.38;;
21804;SDS011;11064;47.102;15.452;2023-11-22T07:23:08;2.75;;;2.10;;
21804;SDS011;11064;47.102;15.452;2023-11-22T07:25:38;5.60;;;2.93;;
21804;SDS011;11064;47.102;15.452;2023-11-22T07:28:04;4.85;;;2.75;;
21804;SDS011;11064;47.102;15.452;2023-11-22T07:30:30;3.70;;;2.80;;
21804;SDS011;11064;47.102;15.452;2023-11-22T07:32:58;4.45;;;2.90;;
21804;SDS011;11064;47.102;15.452;2023-11-22T07:35:24;4.60;;;2.85;;
21804;SDS011;11064;47.102;15.452;2023-11-22T07:37:51;5.38;;;3.42;;
21804;SDS011;11064;47.102;15.452;2023-11-22T07:40:19;5.95;;;3.08;;
21804;SDS011;11064;47.102;15.452;2023-11-22T07:42:47;4.63;;;3.10;;
21804;SDS011;11064;47.102;15.452;2023-11-22T07:45:13;5.38;;;3.13;;
21804;SDS011;11064;47.102;15.452;2023-11-22T07:47:39;3.90;;;3.00;;
21804;SDS011;11064;47.102;15.452;2023-11-22T07:50:09;5.57;;;3.20;;
21804;SDS011;11064;47.102;15.452;2023-11-22T07:52:36;4.47;;;3.15;;
21804;SDS011;11064;47.102;15.452;2023-11-22T07:55:05;3.90;;;3.00;;
21804;SDS011;11064;47.102;15.452;2023-11-22T07:57:33;7.47;;;4.38;;
21804;SDS011;11064;47.102;15.452;2023-11-22T07:59:59;54.40;;;18.70;;
21804;SDS011;11064;47.102;15.452;2023-11-22T08:02:26;23.00;;;9.38;;
21804;SDS011;11064;47.102;15.452;2023-11-22T08:04:53;10.82;;;5.05;;
21804;SDS011;11064;47.102;15.452;2023-11-22T08:07:20;12.20;;;5.55;;
21804;SDS011;11064;47.102;15.452;2023-11-22T08:09:48;5.68;;;3.50;;
21804;SDS011;11064;47.102;15.452;2023-11-22T08:12:14;9.68;;;5.47;;
21804;SDS011;11064;47.102;15.452;2023-11-22T08:14:40;4.45;;;3.42;;
21804;SDS011;11064;47.102;15.452;2023-11-22T08:17:08;5.13;;;3.28;;
21804;SDS011;11064;47.102;15.452;2023-11-22T08:19:33;4.63;;;3.55;;
21804;SDS011;11064;47.102;15.452;2023-11-22T08:21:59;4.45;;;3.80;;
21804;SDS011;11064;47.102;15.452;2023-11-22T08:24:25;6.63;;;4.07;;
21804;SDS011;11064;47.102;15.452;2023-11-22T08:26:51;5.57;;;3.72;;
21804;SDS011;11064;47.102;15.452;2023-11-22T08:29:17;4.25;;;3.50;;
21804;SDS011;11064;47.102;15.452;2023-11-22T08:31:42;6.60;;;3.78;;
21804;SDS011;11064;47.102;15.452;2023-11-22T08:34:08;5.65;;;4.10;;
21804;SDS011;11064;47.102;15.452;2023-11-22T08:36:36;7.45;;;4.20;;
21804;SDS011;11064;47.102;15.452;2023-11-22T08:39:02;5.72;;;3.70;;
21804;SDS011;11064;47.102;15.452;2023-11-22T08:41:29;4.72;;;3.53;;
21804;SDS011;11064;47.102;15.452;2023-11-22T08:43:57;3.88;;;3.00;;
21804;SDS011;11064;47.102;15.452;2023-11-22T08:46:23;5.00;;;3.42;;
21804;SDS011;11064;47.102;15.452;2023-11-22T08:48:49;6.28;;;4.03;;
21804;SDS011;11064;47.102;15.452;2023-11-22T08:51:18;7.05;;;4.15;;
21804;SDS011;11064;47.102;15.452;2023-11-22T08:53:44;6.53;;;3.42;;
21804;SDS011;11064;47.102;15.452;2023-11-22T08:56:10;4.70;;;3.30;;
21804;SDS011;11064;47.102;15.452;2023-11-22T08:58:37;5.25;;;3.90;;
21804;SDS011;11064;47.102;15.452;2023-11-22T09:01:04;6.18;;;4.20;;
21804;SDS011;11064;47.102;15.452;2023-11-22T09:03:30;10.50;;;5.00;;
21804;SDS011;11064;47.102;15.452;2023-11-22T09:05:57;7.50;;;4.65;;
21804;SDS011;11064;47.102;15.452;2023-11-22T09:08:24;7.75;;;4.55;;
21804;SDS011;11064;47.102;15.452;2023-11-22T09:10:49;5.93;;;4.40;;
21804;SDS011;11064;47.102;15.452;2023-11-22T09:13:16;7.28;;;4.25;;
21804;SDS011;11064;47.102;15.452;2023-11-22T09:15:42;6.38;;;4.05;;
21804;SDS011;11064;47.102;15.452;2023-11-22T09:18:10;7.28;;;4.35;;
21804;SDS011;11064;47.102;15.452;2023-11-22T09:20:38;8.23;;;3.85;;
21804;SDS011;11064;47.102;15.452;2023-11-22T09:23:04;5.47;;;3.72;;
21804;SDS011;11064;47.102;15.452;2023-11-22T09:25:30;6.00;;;3.78;;
21804;SDS011;11064;47.102;15.452;2023-11-22T09:27:58;6.97;;;4.25;;
21804;SDS011;11064;47.102;15.452;2023-11-22T09:30:27;6.60;;;4.20;;
21804;SDS011;11064;47.102;15.452;2023-11-22T09:33:09;6.78;;;3.55;;
21804;SDS011;11064;47.102;15.452;2023-11-22T09:35:42;6.25;;;3.72;;
21804;SDS011;11064;47.102;15.452;2023-11-22T09:38:10;6.07;;;3.63;;
21804;SDS011;11064;47.102;15.452;2023-11-22T09:40:46;6.38;;;4.40;;
21804;SDS011;11064;47.102;15.452;2023-11-22T09:43:13;7.07;;;4.65;;
21804;SDS011;11064;47.102;15.452;2023-11-22T09:45:45;6.60;;;3.70;;
21804;SDS011;11064;47.102;15.452;2023-11-22T09:48:21;6.07;;;4.53;;
21804;SDS011;11064;47.102;15.452;2023-11-22T09:53:52;7.65;;;5.00;;
21804;SDS011;11064;47.102;15.452;2023-11-22T09:56:22;10.25;;;4.72;;
21804;SDS011;11064;47.102;15.452;2023-11-22T09:58:53;7.22;;;4.63;;
21804;SDS011;11064;47.102;15.452;2023-11-22T10:01:21;8.65;;;4.70;;
21804;SDS011;11064;47.102;15.452;2023-11-22T10:03:47;9.07;;;5.00;;
21804;SDS011;11064;47.102;15.452;2023-11-22T10:06:14;7.20;;;4.60;;
21804;SDS011;11064;47.102;15.452;2023-11-22T10:08:41;6.85;;;4.53;;
21804;SDS011;11064;47.102;15.452;2023-11-22T10:11:07;8.02;;;4.47;;
21804;SDS011;11064;47.102;15.452;2023-11-22T10:13:33;6.47;;;4.85;;
21804;SDS011;11064;47.102;15.452;2023-11-22T10:16:12;6.68;;;4.70;;
21804;SDS011;11064;47.102;15.452;2023-11-22T10:18:44;5.63;;;4.50;;
21804;SDS011;11064;47.102;15.452;2023-11-22T10:21:22;9.13;;;4.78;;
21804;SDS011;11064;47.102;15.452;2023-11-22T10:23:49;7.78;;;5.10;;
21804;SDS011;11064;47.102;15.452;2023-11-22T10:26:18;7.05;;;4.00;;
21804;SDS011;11064;47.102;15.452;2023-11-22T10:28:44;9.43;;;4.32;;
21804;SDS011;11064;47.102;15.452;2023-11-22T10:31:09;6.60;;;4.15;;
21804;SDS011;11064;47.102;15.452;2023-11-22T10:33:39;6.32;;;3.80;;
21804;SDS011;11064;47.102;15.452;2023-11-22T10:36:08;4.32;;;3.30;;
21804;SDS011;11064;47.102;15.452;2023-11-22T10:38:36;5.60;;;3.83;;
21804;SDS011;11064;47.102;15.452;2023-11-22T10:41:05;8.75;;;4.90;;
21804;SDS011;11064;47.102;15.452;2023-11-22T10:43:34;6.90;;;4.85;;
21804;SDS011;11064;47.102;15.452;2023-11-22T10:46:02;7.25;;;4.63;;
21804;SDS011;11064;47.102;15.452;2023-11-22T10:48:31;6.47;;;4.50;;
21804;SDS011;11064;47.102;15.452;2023-11-22T10:51:01;7.90;;;4.85;;
21804;SDS011;11064;47.102;15.452;2023-11-22T10:55:59;6.53;;;4.97;;
21804;SDS011;11064;47.102;15.452;2023-11-22T10:58:51;11.18;;;4.97;;
21804;SDS011;11064;47.102;15.452;2023-11-22T11:01:24;6.50;;;4.55;;
21804;SDS011;11064;47.102;15.452;2023-11-22T11:04:00;8.18;;;4.70;;
21804;SDS011;11064;47.102;15.452;2023-11-22T11:06:32;7.45;;;4.78;;
21804;SDS011;11064;47.102;15.452;2023-11-22T11:09:02;7.90;;;5.25;;
21804;SDS011;11064;47.102;15.452;2023-11-22T11:11:36;6.65;;;4.72;;
21804;SDS011;11064;47.102;15.452;2023-11-22T11:14:06;6.47;;;4.75;;
21804;SDS011;11064;47.102;15.452;2023-11-22T11:16:43;6.93;;;4.50;;
21804;SDS011;11064;47.102;15.452;2023-11-22T11:19:14;6.15;;;5.07;;
21804;SDS011;11064;47.102;15.452;2023-11-22T11:21:42;10.88;;;4.80;;
21804;SDS011;11064;47.102;15.452;2023-11-22T11:24:08;7.28;;;5.03;;
21804;SDS011;11064;47.102;15.452;2023-11-22T11:26:34;7.13;;;4.82;;
21804;SDS011;11064;47.102;15.452;2023-11-22T11:29:00;7.38;;;4.30;;
21804;SDS011;11064;47.102;15.452;2023-11-22T11:31:32;7.93;;;4.90;;
21804;SDS011;11064;47.102;15.452;2023-11-22T11:34:07;9.65;;;5.22;;
21804;SDS011;11064;47.102;15.452;2023-11-22T11:36:33;12.02;;;6.20;;
21804;SDS011;11064;47.102;15.452;2023-11-22T11:39:06;9.02;;;5.60;;
21804;SDS011;11064;47.102;15.452;2023-11-22T11:41:51;10.32;;;5.38;;
21804;SDS011;11064;47.102;15.452;2023-11-22T11:44:18;9.60;;;5.75;;
21804;SDS011;11064;47.102;15.452;2023-11-22T11:46:44;8.82;;;5.78;;
21804;SDS011;11064;47.102;15.452;2023-11-22T11:49:12;10.27;;;5.40;;
21804;SDS011;11064;47.102;15.452;2023-11-22T11:51:39;8.15;;;5.25;;
21804;SDS011;11064;47.102;15.452;2023-11-22T11:54:06;6.05;;;4.68;;
21804;SDS011;11064;47.102;15.452;2023-11-22T11:56:34;6.63;;;5.10;;
21804;SDS011;11064;47.102;15.452;2023-11-22T11:59:00;6.25;;;4.70;;
21804;SDS011;11064;47.102;15.452;2023-11-22T12:01:27;7.05;;;5.10;;
21804;SDS011;11064;47.102;15.452;2023-11-22T12:04:00;8.35;;;4.90;;
21804;SDS011;11064;47.102;15.452;2023-11-22T12:06:28;7.20;;;4.80;;
21804;SDS011;11064;47.102;15.452;2023-11-22T12:08:56;6.88;;;4.50;;
21804;SDS011;11064;47.102;15.452;2023-11-22T12:11:23;9.32;;;4.47;;
21804;SDS011;11064;47.102;15.452;2023-11-22T12:13:49;6.97;;;4.70;;
21804;SDS011;11064;47.102;15.452;2023-11-22T12:16:17;5.88;;;4.22;;
21804;SDS011;11064;47.102;15.452;2023-11-22T12:18:43;5.88;;;4.35;;
21804;SDS011;11064;47.102;15.452;2023-11-22T12:21:13;6.43;;;4.30;;
21804;SDS011;11064;47.102;15.452;2023-11-22T12:23:40;5.53;;;3.80;;
21804;SDS011;11064;47.102;15.452;2023-11-22T12:26:14;5.78;;;4.20;;
21804;SDS011;11064;47.102;15.452;2023-11-22T12:28:41;7.63;;;4.00;;
21804;SDS011;11064;47.102;15.452;2023-11-22T12:31:11;6.93;;;3.90;;
21804;SDS011;11064;47.102;15.452;2023-11-22T12:33:42;5.10;;;3.75;;
21804;SDS011;11064;47.102;15.452;2023-11-22T12:36:10;5.18;;;3.80;;
21804;SDS011;11064;47.102;15.452;2023-11-22T12:38:40;4.70;;;3.67;;
21804;SDS011;11064;47.102;15.452;2023-11-22T12:41:06;5.25;;;3.78;;
21804;SDS011;11064;47.102;15.452;2023-11-22T12:43:33;7.47;;;3.97;;
21804;SDS011;11064;47.102;15.452;2023-11-22T12:46:06;5.25;;;3.50;;
21804;SDS011;11064;47.102;15.452;2023-11-22T12:48:34;4.95;;;3.83;;
21804;SDS011;11064;47.102;15.452;2023-11-22T12:51:01;6.75;;;4.60;;
21804;SDS011;11064;47.102;15.452;2023-11-22T12:53:27;6.43;;;4.10;;
21804;SDS011;11064;47.102;15.452;2023-11-22T12:55:53;6.30;;;3.60;;
21804;SDS011;11064;47.102;15.452;2023-11-22T12:58:29;5.18;;;3.55;;
21804;SDS011;11064;47.102;15.452;2023-11-22T13:00:55;5.78;;;4.15;;
21804;SDS011;11064;47.102;15.452;2023-11-22T13:03:26;6.03;;;4.20;;
21804;SDS011;11064;47.102;15.452;2023-11-22T13:05:52;5.00;;;3.90;;
21804;SDS011;11064;47.102;15.452;2023-11-22T13:08:18;5.55;;;4.30;;
21804;SDS011;11064;47.102;15.452;2023-11-22T13:10:47;5.07;;;3.83;;
21804;SDS011;11064;47.102;15.452;2023-11-22T13:13:20;5.75;;;4.30;;
21804;SDS011;11064;47.102;15.452;2023-11-22T13:15:47;5.38;;;3.95;;
21804;SDS011;11064;47.102;15.452;2023-11-22T13:18:14;4.60;;;3.60;;
21804;SDS011;11064;47.102;15.452;2023-11-22T13:20:41;6.57;;;3.67;;
21804;SDS011;11064;47.102;15.452;2023-11-22T13:23:08;4.85;;;3.50;;
21804;SDS011;11064;47.102;15.452;2023-11-22T13:25:34;4.65;;;3.75;;
21804;SDS011;11064;47.102;15.452;2023-11-22T13:28:00;4.10;;;3.47;;
21804;SDS011;11064;47.102;15.452;2023-11-22T13:30:27;4.85;;;3.30;;
21804;SDS011;11064;47.102;15.452;2023-11-22T13:32:54;5.22;;;3.25;;
21804;SDS011;11064;47.102;15.452;2023-11-22T13:35:24;4.82;;;3.60;;
21804;SDS011;11064;47.102;15.452;2023-11-22T13:40:21;4.13;;;3.40;;
21804;SDS011;11064;47.102;15.452;2023-11-22T13:42:47;5.78;;;3.55;;
21804;SDS011;11064;47.102;15.452;2023-11-22T13:45:19;5.95;;;3.45;;
21804;SDS011;11064;47.102;15.452;2023-11-22T13:47:46;4.00;;;3.20;;
21804;SDS011;11064;47.102;15.452;2023-11-22T13:50:14;5.75;;;3.33;;
21804;SDS011;11064;47.102;15.452;2023-11-22T13:52:47;5.80;;;3.50;;
21804;SDS011;11064;47.102;15.452;2023-11-22T13:55:14;5.10;;;3.50;;
21804;SDS011;11064;47.102;15.452;2023-11-22T13:57:42;5.93;;;3.80;;
21804;SDS011;11064;47.102;15.452;2023-11-22T14:00:09;4.10;;;3.50;;
21804;SDS011;11064;47.102;15.452;2023-11-22T14:02:44;7.97;;;4.30;;
21804;SDS011;11064;47.102;15.452;2023-11-22T14:05:22;7.50;;;4.07;;
21804;SDS011;11064;47.102;15.452;2023-11-22T14:07:49;5.07;;;3.88;;
21804;SDS011;11064;47.102;15.452;2023-11-22T14:10:16;5.07;;;3.60;;
21804;SDS011;11064;47.102;15.452;2023-11-22T14:12:43;5.10;;;3.55;;
21804;SDS011;11064;47.102;15.452;2023-11-22T14:15:11;2.80;;;1.90;;
21804;SDS011;11064;47.102;15.452;2023-11-22T14:17:37;4.78;;;2.45;;
21804;SDS011;11064;47.102;15.452;2023-11-22T14:20:05;2.35;;;2.00;;
21804;SDS011;11064;47.102;15.452;2023-11-22T14:22:33;2.50;;;1.33;;
21804;SDS011;11064;47.102;15.452;2023-11-22T14:24:58;1.73;;;1.40;;
21804;SDS011;11064;47.102;15.452;2023-11-22T14:27:25;5.57;;;1.92;;
21804;SDS011;11064;47.102;15.452;2023-11-22T14:29:53;2.53;;;2.10;;
21804;SDS011;11064;47.102;15.452;2023-11-22T14:32:19;5.18;;;1.90;;
21804;SDS011;11064;47.102;15.452;2023-11-22T14:34:48;3.38;;;1.90;;
21804;SDS011;11064;47.102;15.452;2023-11-22T14:37:13;3.15;;;2.50;;
21804;SDS011;11064;47.102;15.452;2023-11-22T14:39:40;4.18;;;2.00;;
21804;SDS011;11064;47.102;15.452;2023-11-22T14:42:07;3.92;;;1.65;;
21804;SDS011;11064;47.102;15.452;2023-11-22T14:44:33;2.67;;;1.80;;
21804;SDS011;11064;47.102;15.452;2023-11-22T14:47:00;2.80;;;1.92;;
21804;SDS011;11064;47.102;15.452;2023-11-22T14:49:37;3.05;;;1.73;;
21804;SDS011;11064;47.102;15.452;2023-11-22T14:52:04;3.08;;;1.73;;
21804;SDS011;11064;47.102;15.452;2023-11-22T14:54:29;2.15;;;1.63;;
21804;SDS011;11064;47.102;15.452;2023-11-22T14:56:55;2.30;;;2.00;;
21804;SDS011;11064;47.102;15.452;2023-11-22T15:01:53;2.13;;;1.80;;
21804;SDS011;11064;47.102;15.452;2023-11-22T15:04:20;2.97;;;1.90;;
21804;SDS011;11064;47.102;15.452;2023-11-22T15:06:46;2.85;;;2.10;;
21804;SDS011;11064;47.102;15.452;2023-11-22T15:09:12;2.10;;;1.90;;
21804;SDS011;11064;47.102;15.452;2023-11-22T15:11:40;3.45;;;1.90;;
21804;SDS011;11064;47.102;15.452;2023-11-22T15:14:07;3.45;;;2.47;;
21804;SDS011;11064;47.102;15.452;2023-11-22T15:16:33;4.57;;;2.40;;
21804;SDS011;11064;47.102;15.452;2023-11-22T15:18:59;2.92;;;2.20;;
21804;SDS011;11064;47.102;15.452;2023-11-22T15:21:30;4.38;;;2.30;;
21804;SDS011;11064;47.102;15.452;2023-11-22T15:23:56;4.63;;;2.80;;
21804;SDS011;11064;47.102;15.452;2023-11-22T15:26:23;4.43;;;2.92;;
21804;SDS011;11064;47.102;15.452;2023-11-22T15:28:49;4.13;;;2.70;;
21804;SDS011;11064;47.102;15.452;2023-11-22T15:31:18;7.65;;;3.10;;
21804;SDS011;11064;47.102;15.452;2023-11-22T15:33:44;7.63;;;4.47;;
21804;SDS011;11064;47.102;15.452;2023-11-22T15:36:11;3.20;;;2.90;;
21804;SDS011;11064;47.102;15.452;2023-11-22T15:38:37;3.85;;;2.90;;
21804;SDS011;11064;47.102;15.452;2023-11-22T15:41:03;4.15;;;2.50;;
21804;SDS011;11064;47.102;15.452;2023-11-22T15:43:30;4.57;;;2.58;;
21804;SDS011;11064;47.102;15.452;2023-11-22T15:45:56;8.20;;;4.55;;
21804;SDS011;11064;47.102;15.452;2023-11-22T15:48:22;5.10;;;3.47;;
21804;SDS011;11064;47.102;15.452;2023-11-22T15:50:51;3.75;;;2.88;;
21804;SDS011;11064;47.102;15.452;2023-11-22T15:53:17;3.28;;;2.47;;
21804;SDS011;11064;47.102;15.452;2023-11-22T15:55:43;3.03;;;2.33;;
21804;SDS011;11064;47.102;15.452;2023-11-22T15:58:09;4.60;;;2.35;;
21804;SDS011;11064;47.102;15.452;2023-11-22T16:00:35;4.00;;;2.55;;
21804;SDS011;11064;47.102;15.452;2023-11-22T16:03:01;4.43;;;2.80;;
21804;SDS011;11064;47.102;15.452;2023-11-22T16:05:31;3.75;;;2.80;;
21804;SDS011;11064;47.102;15.452;2023-11-22T16:07:58;3.53;;;3.00;;
21804;SDS011;11064;47.102;15.452;2023-11-22T16:10:24;3.80;;;2.78;;
21804;SDS011;11064;47.102;15.452;2023-11-22T16:12:49;3.92;;;2.47;;
21804;SDS011;11064;47.102;15.452;2023-11-22T16:15:17;3.50;;;2.70;;
21804;SDS011;11064;47.102;15.452;2023-11-22T16:17:43;3.17;;;2.67;;
21804;SDS011;11064;47.102;15.452;2023-11-22T16:20:09;3.70;;;2.88;;
21804;SDS011;11064;47.102;15.452;2023-11-22T16:22:42;3.35;;;2.85;;
21804;SDS011;11064;47.102;15.452;2023-11-22T16:25:12;4.55;;;2.50;;
21804;SDS011;11064;47.102;15.452;2023-11-22T16:27:39;8.55;;;5.03;;
21804;SDS011;11064;47.102;15.452;2023-11-22T16:30:09;39.70;;;16.05;;
21804;SDS011;11064;47.102;15.452;2023-11-22T16:32:35;33.08;;;14.20;;
21804;SDS011;11064;47.102;15.452;2023-11-22T16:35:05;24.45;;;10.75;;
21804;SDS011;11064;47.102;15.452;2023-11-22T16:37:31;8.65;;;4.10;;
21804;SDS011;11064;47.102;15.452;2023-11-22T16:39:58;6.45;;;4.13;;
21804;SDS011;11064;47.102;15.452;2023-11-22T16:42:31;7.18;;;3.83;;
21804;SDS011;11064;47.102;15.452;2023-11-22T16:45:00;10.52;;;6.50;;
21804;SDS011;11064;47.102;15.452;2023-11-22T16:47:28;7.45;;;4.88;;
21804;SDS011;11064;47.102;15.452;2023-11-22T16:49:54;4.60;;;3.53;;
21804;SDS011;11064;47.102;15.452;2023-11-22T16:52:20;4.55;;;3.20;;
21804;SDS011;11064;47.102;15.452;2023-11-22T16:54:51;7.70;;;3.42;;
21804;SDS011;11064;47.102;15.452;2023-11-22T16:57:17;3.58;;;2.78;;
21804;SDS011;11064;47.102;15.452;2023-11-22T16:59:43;6.85;;;3.30;;
21804;SDS011;11064;47.102;15.452;2023-11-22T17:02:10;5.47;;;3.33;;
21804;SDS011;11064;47.102;15.452;2023-11-22T17:04:42;4.25;;;3.60;;
21804;SDS011;11064;47.102;15.452;2023-11-22T17:07:10;6.57;;;3.50;;
21804;SDS011;11064;47.102;15.452;2023-11-22T17:09:36;5.72;;;3.90;;
21804;SDS011;11064;47.102;15.452;2023-11-22T17:12:03;4.53;;;3.33;;
21804;SDS011;11064;47.102;15.452;2023-11-22T17:14:29;4.68;;;3.42;;
21804;SDS011;11064;47.102;15.452;2023-11-22T17:16:56;5.32;;;2.90;;
21804;SDS011;11064;47.102;15.452;2023-11-22T17:19:22;4.85;;;3.20;;
21804;SDS011;11064;47.102;15.452;2023-11-22T17:21:48;4.45;;;3.22;;
21804;SDS011;11064;47.102;15.452;2023-11-22T17:24:14;4.47;;;2.85;;
21804;SDS011;11064;47.102;15.452;2023-11-22T17:26:41;5.95;;;3.40;;
21804;SDS011;11064;47.102;15.452;2023-11-22T17:29:06;4.05;;;3.28;;
21804;SDS011;11064;47.102;15.452;2023-11-22T17:31:32;4.35;;;3.08;;
21804;SDS011;11064;47.102;15.452;2023-11-22T17:33:58;5.30;;;3.42;;
21804;SDS011;11064;47.102;15.452;2023-11-22T17:36:24;4.47;;;3.17;;
21804;SDS011;11064;47.102;15.452;2023-11-22T17:38:50;4.57;;;3.47;;
21804;SDS011;11064;47.102;15.452;2023-11-22T17:41:16;6.43;;;4.53;;
21804;SDS011;11064;47.102;15.452;2023-11-22T17:43:42;7.30;;;5.18;;
21804;SDS011;11064;47.102;15.452;2023-11-22T17:46:07;7.93;;;5.38;;
21804;SDS011;11064;47.102;15.452;2023-11-22T17:48:33;8.95;;;5.53;;
21804;SDS011;11064;47.102;15.452;2023-11-22T17:51:02;7.97;;;5.68;;
21804;SDS011;11064;47.102;15.452;2023-11-22T17:53:28;8.65;;;5.60;;
21804;SDS011;11064;47.102;15.452;2023-11-22T17:55:55;8.23;;;5.30;;
21804;SDS011;11064;47.102;15.452;2023-11-22T17:58:23;7.40;;;5.20;;
21804;SDS011;11064;47.102;15.452;2023-11-22T18:00:51;11.30;;;5.47;;
21804;SDS011;11064;47.102;15.452;2023-11-22T18:03:17;8.52;;;5.50;;
21804;SDS011;11064;47.102;15.452;2023-11-22T18:05:42;8.32;;;5.38;;
21804;SDS011;11064;47.102;15.452;2023-11-22T18:08:09;7.07;;;4.60;;
21804;SDS011;11064;47.102;15.452;2023-11-22T18:10:37;9.73;;;5.40;;
21804;SDS011;11064;47.102;15.452;2023-11-22T18:13:03;8.63;;;5.05;;
21804;SDS011;11064;47.102;15.452;2023-11-22T18:15:28;7.05;;;4.20;;
21804;SDS011;11064;47.102;15.452;2023-11-22T18:17:54;5.90;;;4.15;;
21804;SDS011;11064;47.102;15.452;2023-11-22T18:20:22;6.80;;;5.07;;
21804;SDS011;11064;47.102;15.452;2023-11-22T18:22:47;7.70;;;5.22;;
21804;SDS011;11064;47.102;15.452;2023-11-22T18:25:13;6.18;;;5.15;;
21804;SDS011;11064;47.102;15.452;2023-11-22T18:27:39;8.63;;;5.60;;
21804;SDS011;11064;47.102;15.452;2023-11-22T18:30:07;6.78;;;5.03;;
21804;SDS011;11064;47.102;15.452;2023-11-22T18:32:33;10.27;;;5.80;;
21804;SDS011;11064;47.102;15.452;2023-11-22T18:34:59;10.77;;;5.85;;
21804;SDS011;11064;47.102;15.452;2023-11-22T18:37:25;8.18;;;5.43;;
21804;SDS011;11064;47.102;15.452;2023-11-22T18:39:51;7.57;;;5.47;;
21804;SDS011;11064;47.102;15.452;2023-11-22T18:42:22;6.85;;;4.90;;
21804;SDS011;11064;47.102;15.452;2023-11-22T18:44:48;6.90;;;5.00;;
21804;SDS011;11064;47.102;15.452;2023-11-22T18:47:14;6.95;;;5.10;;
21804;SDS011;11064;47.102;15.452;2023-11-22T18:49:42;7.00;;;5.03;;
21804;SDS011;11064;47.102;15.452;2023-11-22T18:52:08;7.05;;;4.90;;
21804;SDS011;11064;47.102;15.452;2023-11-22T18:54:34;7.88;;;5.43;;
21804;SDS011;11064;47.102;15.452;2023-11-22T18:57:00;9.43;;;5.35;;
21804;SDS011;11064;47.102;15.452;2023-11-22T18:59:31;7.50;;;5.28;;
21804;SDS011;11064;47.102;15.452;2023-11-22T19:01:58;8.98;;;6.70;;
21804;SDS011;11064;47.102;15.452;2023-11-22T19:04:25;10.13;;;7.25;;
21804;SDS011;11064;47.102;15.452;2023-11-22T19:06:52;9.23;;;6.28;;
21804;SDS011;11064;47.102;15.452;2023-11-22T19:09:18;8.70;;;5.93;;
21804;SDS011;11064;47.102;15.452;2023-11-22T19:11:45;8.40;;;5.70;;
21804;SDS011;11064;47.102;15.452;2023-11-22T19:14:13;9.18;;;5.32;;
21804;SDS011;11064;47.102;15.452;2023-11-22T19:16:40;7.75;;;5.65;;
21804;SDS011;11064;47.102;15.452;2023-11-22T19:19:08;10.20;;;6.35;;
21804;SDS011;11064;47.102;15.452;2023-11-22T19:21:34;11.45;;;7.10;;
21804;SDS011;11064;47.102;15.452;2023-11-22T19:24:01;10.35;;;6.72;;
21804;SDS011;11064;47.102;15.452;2023-11-22T19:26:27;10.57;;;6.93;;
21804;SDS011;11064;47.102;15.452;2023-11-22T19:31:25;10.82;;;7.25;;
21804;SDS011;11064;47.102;15.452;2023-11-22T19:33:51;10.20;;;6.75;;
21804;SDS011;11064;47.102;15.452;2023-11-22T19:36:18;11.68;;;7.10;;
21804;SDS011;11064;47.102;15.452;2023-11-22T19:38:48;10.15;;;6.75;;
21804;SDS011;11064;47.102;15.452;2023-11-22T19:41:15;11.43;;;6.82;;
21804;SDS011;11064;47.102;15.452;2023-11-22T19:43:41;12.48;;;7.47;;
21804;SDS011;11064;47.102;15.452;2023-11-22T19:46:07;12.18;;;7.30;;
21804;SDS011;11064;47.102;15.452;2023-11-22T19:48:33;10.07;;;6.60;;